Huvudsida
METAR-TAF:

METAR-TAF

Flygplatser :

Payerne, Schweiz

latitud: 46-49N, longitud: 006-57E, höjd: 490 m

Aktuellt väderrapport

Denna rapport gjordes för 15 minuter sedan, klockan 04:50 UTC
Vind 13 kt från sydväst
Temperatur 4°C
Fuktighet 81%
Tryck 1025 hPa
Sikt 10 km eller mer
Spridda moln på en höjd av 2000 ft
Brutna moln på en höjd av 3500 ft
Brutna moln på en höjd av 4000 ft
lätt regn

METAR: LSMP 190450Z 22013KT 9999 -RA SCT020 BKN035 BKN040 04/01 Q1025 RMK BLU

Tid: 06:05 (05:05 UTC)


TAF: saknas

Aktuella väderrapporter och prognoser från 4000 flygplatser (METAR- och TAF-rapporter).

De tillgängliga stationerna syns som gula och röda prickar på kartan.

För musen över prickarna för att se namnen på stationerna.

Klicka sedan för att få väderrapporter och prognoser.

För att ändra kartan: Klicka på de gröna knapparna med ett svart kors på för att zooma in; den gröna knappen med ett streck på för att zooma ut; eller på de gröna pilarna för angränsande kartor.


METAR-TAF: